createdAt,value
2018-12-29T00:00:39.919Z,39.80
2018-12-29T00:01:39.893Z,40.10
2018-12-29T00:02:39.892Z,40.90
2018-12-29T00:03:39.869Z,42.40
2018-12-29T00:04:39.919Z,39.80
2018-12-29T00:05:39.889Z,41.90
2018-12-29T00:06:39.847Z,41.70
2018-12-29T00:07:39.824Z,40.20
2018-12-29T00:08:39.819Z,41.50
2018-12-29T00:09:39.824Z,42.80
2018-12-29T00:10:39.791Z,42.70
2018-12-29T00:11:39.824Z,41.50
2018-12-29T00:12:39.771Z,42.60
2018-12-29T00:13:39.761Z,42.60
2018-12-29T00:14:39.761Z,39.20
2018-12-29T00:15:39.737Z,42.10
2018-12-29T00:16:39.729Z,41.70
2018-12-29T00:17:39.744Z,42.00
2018-12-29T00:18:39.708Z,43.20
2018-12-29T00:19:39.705Z,42.40
2018-12-29T00:20:39.695Z,41.90
2018-12-29T00:21:39.681Z,40.60
2018-12-29T00:22:39.680Z,42.30
2018-12-29T00:23:39.668Z,43.20
2018-12-29T00:24:39.674Z,42.30
2018-12-29T00:25:39.622Z,42.10
2018-12-29T00:26:39.611Z,43.00
2018-12-29T00:27:39.611Z,42.80
2018-12-29T00:28:39.613Z,41.40
2018-12-29T00:29:39.657Z,42.40
2018-12-29T00:30:39.567Z,40.90
2018-12-29T00:31:39.571Z,41.50
2018-12-29T00:32:39.544Z,40.80
2018-12-29T00:33:39.571Z,41.90
2018-12-29T00:34:39.538Z,41.70
2018-12-29T00:35:39.518Z,40.40
2018-12-29T00:36:39.507Z,41.50
2018-12-29T00:37:39.499Z,40.30
2018-12-29T00:38:39.494Z,41.30
2018-12-29T00:39:39.509Z,42.50
2018-12-29T00:40:39.457Z,41.70
2018-12-29T00:41:39.455Z,42.20
2018-12-29T00:42:39.457Z,42.00
2018-12-29T00:43:39.423Z,43.40
2018-12-29T00:44:39.411Z,42.30
2018-12-29T00:45:39.433Z,41.50
2018-12-29T00:46:39.404Z,41.70
2018-12-29T00:47:39.378Z,42.00
2018-12-29T00:48:39.368Z,42.80
2018-12-29T00:49:39.357Z,42.40
2018-12-29T00:50:39.346Z,41.70
2018-12-29T00:51:39.349Z,41.80
2018-12-29T00:52:39.328Z,41.30
2018-12-29T00:53:39.328Z,41.60
2018-12-29T00:54:39.300Z,43.00
2018-12-29T00:55:39.295Z,42.50
2018-12-29T00:56:39.276Z,42.00
2018-12-29T00:57:39.292Z,43.00
2018-12-29T00:58:39.268Z,43.10
2018-12-29T00:59:39.254Z,44.30
2018-12-29T01:00:39.254Z,45.00
2018-12-29T01:01:39.224Z,43.60
2018-12-29T01:02:39.228Z,44.50
2018-12-29T01:03:39.199Z,43.40
2018-12-29T01:04:39.189Z,43.10
2018-12-29T01:05:39.203Z,43.30
2018-12-29T01:06:39.172Z,43.50
2018-12-29T01:07:39.155Z,43.30
2018-12-29T01:08:39.179Z,42.40
2018-12-29T01:09:39.140Z,43.50
2018-12-29T01:10:39.141Z,43.90
2018-12-29T01:11:39.115Z,44.30
2018-12-29T01:12:39.119Z,43.80
2018-12-29T01:13:39.088Z,42.90
2018-12-29T01:14:39.111Z,44.00
2018-12-29T01:15:39.069Z,41.90
2018-12-29T01:16:39.082Z,42.30
2018-12-29T01:17:39.055Z,42.40
2018-12-29T01:18:39.037Z,44.60
2018-12-29T01:19:39.034Z,43.70
2018-12-29T01:20:39.053Z,44.20
2018-12-29T01:21:39.031Z,42.40
2018-12-29T01:22:38.988Z,44.30
2018-12-29T01:23:39.008Z,43.10
2018-12-29T01:24:38.968Z,42.50
2018-12-29T01:25:38.964Z,43.60
2018-12-29T01:26:38.964Z,42.80
2018-12-29T01:27:38.947Z,44.60
2018-12-29T01:28:38.928Z,42.50
2018-12-29T01:29:38.910Z,42.60
2018-12-29T01:30:38.909Z,43.40
2018-12-29T01:31:38.914Z,44.50
2018-12-29T01:32:38.904Z,42.80
2018-12-29T01:33:38.876Z,42.50
2018-12-29T01:34:38.907Z,44.00
2018-12-29T01:35:38.848Z,42.10
2018-12-29T01:36:38.853Z,42.70
2018-12-29T01:37:38.834Z,42.60
2018-12-29T01:38:38.842Z,41.80
2018-12-29T01:39:38.842Z,42.80
2018-12-29T01:40:38.800Z,43.10
2018-12-29T01:41:38.807Z,43.70
2018-12-29T01:42:38.775Z,45.20
2018-12-29T01:43:38.788Z,42.20
2018-12-29T01:44:38.745Z,43.00
2018-12-29T01:45:38.739Z,43.30
2018-12-29T01:46:38.725Z,44.10
2018-12-29T01:47:38.717Z,43.30
2018-12-29T01:48:38.699Z,43.80
2018-12-29T01:49:38.735Z,42.10
2018-12-29T01:50:38.674Z,43.10
2018-12-29T01:51:38.666Z,43.50
2018-12-29T01:52:38.669Z,43.80
2018-12-29T01:53:38.657Z,41.30
2018-12-29T01:54:38.633Z,41.90
2018-12-29T01:55:38.639Z,42.10
2018-12-29T01:56:38.611Z,42.60
2018-12-29T01:57:38.605Z,42.50
2018-12-29T01:58:38.597Z,42.80
2018-12-29T01:59:38.596Z,43.10
2018-12-29T02:00:38.587Z,41.80
2018-12-29T02:01:38.574Z,41.50
2018-12-29T02:02:38.546Z,41.80
2018-12-29T02:03:38.552Z,40.30
2018-12-29T02:04:38.534Z,41.00
2018-12-29T02:05:38.524Z,42.70
2018-12-29T02:06:38.538Z,40.50
2018-12-29T02:07:38.505Z,39.80
2018-12-29T02:08:38.479Z,43.20
2018-12-29T02:09:38.484Z,41.90
2018-12-29T02:10:38.476Z,41.90
2018-12-29T02:11:38.452Z,40.90
2018-12-29T02:12:38.444Z,40.90
2018-12-29T02:13:38.424Z,39.80
2018-12-29T02:14:38.412Z,41.70
2018-12-29T02:15:38.408Z,41.40
2018-12-29T02:16:38.387Z,40.80
2018-12-29T02:17:38.393Z,41.00
2018-12-29T02:18:38.366Z,41.30
2018-12-29T02:19:38.358Z,41.20
2018-12-29T02:20:38.347Z,39.40
2018-12-29T02:21:38.348Z,40.80
2018-12-29T02:22:38.319Z,41.00
2018-12-29T02:23:38.327Z,39.60
2018-12-29T02:24:38.303Z,39.10
2018-12-29T02:25:38.310Z,41.60
2018-12-29T02:26:38.295Z,38.10
2018-12-29T02:27:38.265Z,41.70
2018-12-29T02:28:38.269Z,41.00
2018-12-29T02:29:38.251Z,41.00
2018-12-29T02:30:38.246Z,39.70
2018-12-29T02:31:38.240Z,40.70
2018-12-29T02:32:38.233Z,40.70
2018-12-29T02:33:38.207Z,40.20
2018-12-29T02:34:38.209Z,39.50
2018-12-29T02:35:38.179Z,40.00
2018-12-29T02:36:38.169Z,38.10
2018-12-29T02:37:38.166Z,40.20
2018-12-29T02:38:38.151Z,39.30
2018-12-29T02:39:38.141Z,38.90
2018-12-29T02:40:38.142Z,39.80
2018-12-29T02:41:38.113Z,40.00
2018-12-29T02:42:38.100Z,40.00
2018-12-29T02:43:38.113Z,39.40
2018-12-29T02:44:38.093Z,38.10
2018-12-29T02:45:38.079Z,39.20
2018-12-29T02:46:38.083Z,39.00
2018-12-29T02:47:38.062Z,38.40
2018-12-29T02:48:38.034Z,39.90
2018-12-29T02:49:38.035Z,38.40
2018-12-29T02:50:38.043Z,38.60
2018-12-29T02:51:37.997Z,38.40
2018-12-29T02:52:38.025Z,38.90
2018-12-29T02:53:37.990Z,39.20
2018-12-29T02:54:37.994Z,38.70
2018-12-29T02:55:37.962Z,38.70
2018-12-29T02:56:37.956Z,38.90
2018-12-29T02:57:37.933Z,39.10
2018-12-29T02:58:37.942Z,38.70
2018-12-29T02:59:37.928Z,39.60
2018-12-29T03:00:37.895Z,38.10
2018-12-29T03:01:37.889Z,38.40
2018-12-29T03:02:37.882Z,38.50
2018-12-29T03:03:37.866Z,38.10
2018-12-29T03:04:37.865Z,37.80
2018-12-29T03:05:37.851Z,37.80
2018-12-29T03:06:37.861Z,37.60
2018-12-29T03:07:37.823Z,39.70
2018-12-29T03:08:37.807Z,38.40
2018-12-29T03:09:37.814Z,38.50
2018-12-29T03:10:37.790Z,37.30
2018-12-29T03:11:37.781Z,37.10
2018-12-29T03:12:37.776Z,37.90
2018-12-29T03:13:37.760Z,38.60
2018-12-29T03:14:37.746Z,39.60
2018-12-29T03:15:41.666Z,38.10
2018-12-29T03:16:37.721Z,36.90
2018-12-29T03:17:37.708Z,37.40
2018-12-29T03:18:37.700Z,36.00
2018-12-29T03:19:37.697Z,37.90
2018-12-29T03:20:37.692Z,38.00
2018-12-29T03:21:37.687Z,38.00
2018-12-29T03:22:37.653Z,38.20
2018-12-29T03:23:37.674Z,37.30
2018-12-29T03:24:37.646Z,37.50
2018-12-29T03:25:37.618Z,38.60
2018-12-29T03:26:37.608Z,38.80
2018-12-29T03:27:37.619Z,38.70
2018-12-29T03:28:37.603Z,38.10
2018-12-29T03:29:37.580Z,39.10
2018-12-29T03:30:37.573Z,37.40
2018-12-29T03:31:37.574Z,38.40
2018-12-29T03:32:37.735Z,37.90
2018-12-29T03:33:37.544Z,39.10
2018-12-29T03:34:37.517Z,37.70
2018-12-29T03:35:37.513Z,36.50
2018-12-29T03:36:37.503Z,36.30
2018-12-29T03:37:37.485Z,37.70
2018-12-29T03:38:37.493Z,38.80
2018-12-29T03:39:37.463Z,38.00
2018-12-29T03:40:37.466Z,38.00
2018-12-29T03:41:37.448Z,36.60
2018-12-29T03:42:37.441Z,37.80
2018-12-29T03:43:37.430Z,38.50
2018-12-29T03:44:37.432Z,38.20
2018-12-29T03:45:37.407Z,39.10
2018-12-29T03:46:37.399Z,38.50
2018-12-29T03:47:37.401Z,34.10
2018-12-29T03:48:37.364Z,37.80
2018-12-29T03:49:37.348Z,38.20
2018-12-29T03:50:37.366Z,38.80
2018-12-29T03:51:37.328Z,38.10
2018-12-29T03:52:37.346Z,38.50
2018-12-29T03:53:37.316Z,38.00
2018-12-29T03:54:37.296Z,38.40
2018-12-29T03:55:37.310Z,38.70
2018-12-29T03:56:37.294Z,39.60
2018-12-29T03:57:37.271Z,38.90
2018-12-29T03:58:37.248Z,38.40
2018-12-29T03:59:37.279Z,38.30
2018-12-29T04:00:37.253Z,38.60
2018-12-29T04:01:37.238Z,36.00
2018-12-29T04:02:37.203Z,37.40
2018-12-29T04:03:37.194Z,37.50
2018-12-29T04:04:37.194Z,36.90
2018-12-29T04:05:37.165Z,37.00
2018-12-29T04:06:37.156Z,36.20
2018-12-29T04:07:37.159Z,37.20
2018-12-29T04:08:37.133Z,35.60
2018-12-29T04:09:37.127Z,37.30
2018-12-29T04:10:37.115Z,36.60
2018-12-29T04:11:37.099Z,36.80
2018-12-29T04:12:37.102Z,36.30
2018-12-29T04:13:37.093Z,38.10
2018-12-29T04:14:37.155Z,38.70
2018-12-29T04:15:37.055Z,38.60
2018-12-29T04:16:37.042Z,36.90
2018-12-29T04:17:37.047Z,36.10
2018-12-29T04:18:37.026Z,38.40
2018-12-29T04:19:37.030Z,38.00
2018-12-29T04:20:37.015Z,37.40
2018-12-29T04:21:36.989Z,36.90
2018-12-29T04:22:36.976Z,37.40
2018-12-29T04:23:36.976Z,38.00
2018-12-29T04:24:36.960Z,36.80
2018-12-29T04:25:36.955Z,37.30
2018-12-29T04:26:44.481Z,37.80
2018-12-29T04:27:44.479Z,38.60
2018-12-29T04:28:44.458Z,41.20
2018-12-29T04:29:44.445Z,39.30
2018-12-29T04:30:46.660Z,38.70
2018-12-29T04:31:44.432Z,38.70
2018-12-29T04:32:44.425Z,39.40
2018-12-29T04:33:44.402Z,39.10
2018-12-29T04:34:44.407Z,39.60
2018-12-29T04:35:44.379Z,39.10
2018-12-29T04:36:45.390Z,37.30
2018-12-29T04:37:44.363Z,39.70
2018-12-29T04:38:44.351Z,39.50
2018-12-29T04:39:45.452Z,39.60
2018-12-29T04:40:36.791Z,39.90
2018-12-29T04:41:36.784Z,37.50
2018-12-29T04:42:36.766Z,37.10
2018-12-29T04:43:36.767Z,37.80
2018-12-29T04:44:36.785Z,38.20
2018-12-29T04:45:36.747Z,38.10
2018-12-29T04:46:36.712Z,39.10
2018-12-29T04:47:36.724Z,38.50
2018-12-29T04:48:36.688Z,38.70
2018-12-29T04:49:36.680Z,36.90
2018-12-29T04:50:36.708Z,37.40
2018-12-29T04:51:36.655Z,39.50
2018-12-29T04:52:36.649Z,38.60
2018-12-29T04:53:36.653Z,38.00
2018-12-29T04:54:36.617Z,37.40
2018-12-29T04:55:36.617Z,39.30
2018-12-29T04:56:36.613Z,38.30
2018-12-29T04:57:36.592Z,39.50
2018-12-29T04:58:36.579Z,38.10
2018-12-29T04:59:36.585Z,40.10
2018-12-29T05:00:36.555Z,39.20
2018-12-29T05:01:36.549Z,38.70
2018-12-29T05:02:36.557Z,37.30
2018-12-29T05:03:36.525Z,39.90
2018-12-29T05:04:36.534Z,40.20
2018-12-29T05:05:36.498Z,39.20
2018-12-29T05:06:36.487Z,40.20
2018-12-29T05:07:36.547Z,39.30
2018-12-29T05:08:36.511Z,40.60
2018-12-29T05:09:36.458Z,40.60
2018-12-29T05:10:36.463Z,40.40
2018-12-29T05:11:36.431Z,39.40
2018-12-29T05:12:36.417Z,39.90
2018-12-29T05:13:36.414Z,41.10
2018-12-29T05:14:36.406Z,40.50
2018-12-29T05:15:36.384Z,41.00
2018-12-29T05:16:36.399Z,40.00
2018-12-29T05:17:36.364Z,38.60
2018-12-29T05:18:36.351Z,40.00
2018-12-29T05:19:36.340Z,40.90
2018-12-29T05:20:36.366Z,40.50
2018-12-29T05:21:36.317Z,40.60
2018-12-29T05:22:36.324Z,38.80
2018-12-29T05:23:36.295Z,40.90
2018-12-29T05:24:36.285Z,41.10
2018-12-29T05:25:36.278Z,41.60
2018-12-29T05:26:36.300Z,41.00
2018-12-29T05:27:36.271Z,40.60
2018-12-29T05:28:36.250Z,40.80
2018-12-29T05:29:36.228Z,41.70
2018-12-29T05:30:36.279Z,40.00
2018-12-29T05:31:36.207Z,40.20
2018-12-29T05:32:36.194Z,43.20
2018-12-29T05:33:36.242Z,40.20
2018-12-29T05:34:36.172Z,42.50
2018-12-29T05:35:36.167Z,42.20
2018-12-29T05:36:36.151Z,41.90
2018-12-29T05:37:36.143Z,43.00
2018-12-29T05:38:36.145Z,41.10
2018-12-29T05:39:36.163Z,41.40
2018-12-29T05:40:36.109Z,42.20
2018-12-29T05:41:36.100Z,41.60
2018-12-29T05:42:36.091Z,42.00
2018-12-29T05:43:36.075Z,41.30
2018-12-29T05:44:36.078Z,41.40
2018-12-29T05:45:36.070Z,42.20
2018-12-29T05:46:36.043Z,42.00
2018-12-29T05:47:36.038Z,42.00
2018-12-29T05:48:36.019Z,42.50
2018-12-29T05:49:36.006Z,42.50
2018-12-29T05:50:36.012Z,41.80
2018-12-29T05:51:36.001Z,42.10
2018-12-29T05:52:35.974Z,43.70
2018-12-29T05:53:35.966Z,41.60
2018-12-29T05:54:35.951Z,41.70
2018-12-29T05:55:35.965Z,41.70
2018-12-29T05:56:35.930Z,43.70
2018-12-29T05:57:35.920Z,42.10
2018-12-29T05:58:35.939Z,42.90
2018-12-29T05:59:35.899Z,43.10
2018-12-29T06:00:35.885Z,44.20
2018-12-29T06:01:35.890Z,42.70
2018-12-29T06:02:35.864Z,43.10
2018-12-29T06:03:35.853Z,42.70
2018-12-29T06:04:35.896Z,43.30
2018-12-29T06:05:35.830Z,45.40
2018-12-29T06:06:35.835Z,41.60
2018-12-29T06:07:35.808Z,43.40
2018-12-29T06:08:35.796Z,43.60
2018-12-29T06:09:35.787Z,43.50
2018-12-29T06:10:35.823Z,43.70
2018-12-29T06:11:35.766Z,43.50
2018-12-29T06:12:35.766Z,45.20
2018-12-29T06:13:35.740Z,44.90
2018-12-29T06:14:35.727Z,44.20
2018-12-29T06:15:35.717Z,47.10
2018-12-29T06:16:35.718Z,45.20
2018-12-29T06:17:35.695Z,45.90
2018-12-29T06:18:35.701Z,45.70
2018-12-29T06:19:35.671Z,45.30
2018-12-29T06:20:35.670Z,43.30
2018-12-29T06:21:35.647Z,45.30
2018-12-29T06:22:35.656Z,43.90
2018-12-29T06:23:35.631Z,46.70
2018-12-29T06:24:35.651Z,43.50
2018-12-29T06:25:35.605Z,44.00
2018-12-29T06:26:35.596Z,45.30
2018-12-29T06:27:35.583Z,46.30
2018-12-29T06:28:35.606Z,46.40
2018-12-29T06:29:35.560Z,46.80
2018-12-29T06:30:35.611Z,47.90
2018-12-29T06:31:35.539Z,48.40
2018-12-29T06:32:35.569Z,47.00
2018-12-29T06:33:35.520Z,45.30
2018-12-29T06:34:35.534Z,47.60
2018-12-29T06:35:35.493Z,45.80
2018-12-29T06:36:35.497Z,47.00
2018-12-29T06:37:35.472Z,47.20
2018-12-29T06:38:35.464Z,47.50
2018-12-29T06:39:35.452Z,46.50
2018-12-29T06:40:35.467Z,47.60
2018-12-29T06:41:35.436Z,46.90
2018-12-29T06:42:35.432Z,48.20
2018-12-29T06:43:35.406Z,45.90
2018-12-29T06:44:35.400Z,46.30
2018-12-29T06:45:35.385Z,46.60
2018-12-29T06:46:35.425Z,46.30
2018-12-29T06:47:35.382Z,46.50
2018-12-29T06:48:35.353Z,45.90
2018-12-29T06:49:35.342Z,45.20
2018-12-29T06:50:35.329Z,44.80
2018-12-29T06:51:35.320Z,46.70
2018-12-29T06:52:35.309Z,46.20
2018-12-29T06:53:35.351Z,45.20
2018-12-29T06:54:35.283Z,45.40
2018-12-29T06:55:35.274Z,48.30
2018-12-29T06:56:35.259Z,45.70
2018-12-29T06:57:35.248Z,46.90
2018-12-29T06:58:35.237Z,45.90
2018-12-29T06:59:35.264Z,46.50
2018-12-29T07:00:35.214Z,45.40
2018-12-29T07:01:35.209Z,46.00
2018-12-29T07:02:35.195Z,45.40
2018-12-29T07:03:35.185Z,46.40
2018-12-29T07:04:35.172Z,44.80
2018-12-29T07:05:35.182Z,45.70
2018-12-29T07:06:35.182Z,47.20
2018-12-29T07:07:35.143Z,45.30
2018-12-29T07:08:35.129Z,46.50
2018-12-29T07:09:35.118Z,44.80
2018-12-29T07:10:35.114Z,45.00
2018-12-29T07:11:35.112Z,46.50
2018-12-29T07:12:35.094Z,44.80
2018-12-29T07:13:35.074Z,46.60
2018-12-29T07:14:35.061Z,46.30
2018-12-29T07:15:35.050Z,45.90
2018-12-29T07:16:42.015Z,48.10
2018-12-29T07:17:36.025Z,45.70
2018-12-29T07:18:35.072Z,45.40
2018-12-29T07:19:35.005Z,46.70
2018-12-29T07:20:34.997Z,44.30
2018-12-29T07:21:34.980Z,45.70
2018-12-29T07:22:34.987Z,44.90
2018-12-29T07:23:34.962Z,44.80
2018-12-29T07:24:34.969Z,45.80
2018-12-29T07:25:34.937Z,45.50
2018-12-29T07:26:34.927Z,47.70
2018-12-29T07:27:34.937Z,45.50
2018-12-29T07:28:34.909Z,45.30
2018-12-29T07:29:38.405Z,46.40
2018-12-29T07:30:34.882Z,47.70
2018-12-29T07:31:34.903Z,45.40
2018-12-29T07:32:34.862Z,46.40
2018-12-29T07:33:34.865Z,46.10
2018-12-29T07:34:34.837Z,47.50
2018-12-29T07:35:34.828Z,48.10
2018-12-29T07:36:34.823Z,51.80
2018-12-29T07:37:34.830Z,50.50
2018-12-29T07:38:34.807Z,49.00
2018-12-29T07:39:34.785Z,49.10
2018-12-29T07:40:34.769Z,47.90
2018-12-29T07:41:34.761Z,46.80
2018-12-29T07:42:34.749Z,45.70
2018-12-29T07:43:34.758Z,46.80
2018-12-29T07:44:34.752Z,47.60
2018-12-29T07:45:34.715Z,48.00
2018-12-29T07:46:34.707Z,47.80
2018-12-29T07:47:34.696Z,46.90
2018-12-29T07:48:34.680Z,44.70
2018-12-29T07:49:34.670Z,46.40
2018-12-29T07:50:34.674Z,47.00
2018-12-29T07:51:34.680Z,47.60
2018-12-29T07:52:34.639Z,45.60
2018-12-29T07:53:34.631Z,48.40
2018-12-29T07:54:34.616Z,47.00
2018-12-29T07:55:34.630Z,44.60
2018-12-29T07:56:34.595Z,46.20
2018-12-29T07:57:34.623Z,46.70
2018-12-29T07:58:34.567Z,46.40
2018-12-29T07:59:34.559Z,48.50
2018-12-29T08:00:34.549Z,47.60
2018-12-29T08:01:34.561Z,47.10
2018-12-29T08:02:34.524Z,50.70
2018-12-29T08:03:34.539Z,49.60
2018-12-29T08:04:34.513Z,53.20
2018-12-29T08:05:34.492Z,53.50
2018-12-29T08:06:34.483Z,51.20
2018-12-29T08:07:34.494Z,52.60
2018-12-29T08:08:34.459Z,49.50
2018-12-29T08:09:34.486Z,48.10
2018-12-29T08:10:34.438Z,48.50
2018-12-29T08:11:34.430Z,47.90
2018-12-29T08:12:34.419Z,46.30
2018-12-29T08:13:34.429Z,46.30
2018-12-29T08:14:34.408Z,46.70
2018-12-29T08:15:34.416Z,48.20
2018-12-29T08:16:34.372Z,49.00
2018-12-29T08:17:34.360Z,47.30
2018-12-29T08:18:34.353Z,46.40
2018-12-29T08:19:34.354Z,45.20
2018-12-29T08:20:34.325Z,46.50
2018-12-29T08:21:34.321Z,47.80
2018-12-29T08:22:34.334Z,48.00
2018-12-29T08:23:34.296Z,45.90
2018-12-29T08:24:34.280Z,46.50
2018-12-29T08:25:34.284Z,46.80
2018-12-29T08:26:34.260Z,47.70
2018-12-29T08:27:34.251Z,46.00
2018-12-29T08:28:34.251Z,46.10
2018-12-29T08:29:34.228Z,47.30
2018-12-29T08:30:34.233Z,46.20
2018-12-29T08:31:34.206Z,46.40
2018-12-29T08:32:34.196Z,47.50
2018-12-29T08:33:34.186Z,47.50
2018-12-29T08:34:34.215Z,44.80
2018-12-29T08:35:34.164Z,45.50
2018-12-29T08:36:34.181Z,46.60
2018-12-29T08:37:34.138Z,47.70
2018-12-29T08:38:34.130Z,48.10
2018-12-29T08:39:34.117Z,46.40
2018-12-29T08:40:34.158Z,47.70
2018-12-29T08:41:34.097Z,50.80
2018-12-29T08:42:34.101Z,56.20
2018-12-29T08:43:34.076Z,49.10
2018-12-29T08:44:34.061Z,49.70
2018-12-29T08:45:34.068Z,58.10
2018-12-29T08:46:34.048Z,52.20
2018-12-29T08:47:34.062Z,47.30
2018-12-29T08:48:34.035Z,43.60
2018-12-29T08:49:34.008Z,46.40
2018-12-29T08:50:33.993Z,46.80
2018-12-29T08:51:33.987Z,49.50
2018-12-29T08:52:33.974Z,50.30
2018-12-29T08:53:33.968Z,52.90
2018-12-29T08:54:33.966Z,49.80
2018-12-29T08:55:33.943Z,46.60
2018-12-29T08:56:33.938Z,48.50
2018-12-29T08:57:33.916Z,45.20
2018-12-29T08:58:33.920Z,46.70
2018-12-29T08:59:33.904Z,46.50
2018-12-29T09:00:33.896Z,48.60
2018-12-29T09:01:33.874Z,47.70
2018-12-29T09:02:33.863Z,44.00
2018-12-29T09:03:33.850Z,47.20
2018-12-29T09:04:33.857Z,46.90
2018-12-29T09:05:33.903Z,46.80
2018-12-29T09:06:33.817Z,45.40
2018-12-29T09:07:33.820Z,46.30
2018-12-29T09:08:33.797Z,46.70
2018-12-29T09:09:33.782Z,47.20
2018-12-29T09:10:33.779Z,45.60
2018-12-29T09:11:33.800Z,48.30
2018-12-29T09:12:33.749Z,48.90
2018-12-29T09:13:33.737Z,47.70
2018-12-29T09:14:33.763Z,47.30
2018-12-29T09:15:33.718Z,47.20
2018-12-29T09:16:33.706Z,48.20
2018-12-29T09:17:33.718Z,48.70
2018-12-29T09:18:33.698Z,45.90
2018-12-29T09:19:33.673Z,46.00
2018-12-29T09:20:33.673Z,44.00
2018-12-29T09:21:33.652Z,43.40
2018-12-29T09:22:33.641Z,41.60
2018-12-29T09:23:33.648Z,47.30
2018-12-29T09:24:33.645Z,44.30
2018-12-29T09:25:33.611Z,46.00
2018-12-29T09:26:33.593Z,49.60
2018-12-29T09:27:33.590Z,42.90
2018-12-29T09:28:33.583Z,50.40
2018-12-29T09:29:33.602Z,46.60
2018-12-29T09:30:33.559Z,46.50
2018-12-29T09:31:33.568Z,47.40
2018-12-29T09:32:33.529Z,48.10
2018-12-29T09:33:33.518Z,47.80
2018-12-29T09:34:33.512Z,47.70
2018-12-29T09:35:33.520Z,46.70
2018-12-29T09:36:33.486Z,41.20
2018-12-29T09:37:33.527Z,41.30
2018-12-29T09:38:33.466Z,46.90
2018-12-29T09:39:33.471Z,47.00
2018-12-29T09:40:33.440Z,45.10
2018-12-29T09:41:33.427Z,44.40
2018-12-29T09:42:33.419Z,46.00
2018-12-29T09:43:33.423Z,46.30
2018-12-29T09:44:33.396Z,45.10
2018-12-29T09:45:33.430Z,46.80
2018-12-29T09:46:33.378Z,50.10
2018-12-29T09:47:33.362Z,50.80
2018-12-29T09:48:33.425Z,48.00
2018-12-29T09:49:33.355Z,42.50
2018-12-29T09:50:33.327Z,48.70
2018-12-29T09:51:33.319Z,50.30
2018-12-29T09:52:33.337Z,46.30
2018-12-29T09:53:33.298Z,46.50
2018-12-29T09:54:33.288Z,44.40
2018-12-29T09:55:33.290Z,49.50
2018-12-29T09:56:33.264Z,45.20
2018-12-29T09:57:33.273Z,43.30
2018-12-29T09:58:33.265Z,47.60
2018-12-29T09:59:33.230Z,48.20
2018-12-29T10:00:33.220Z,47.00
2018-12-29T10:01:33.207Z,46.90
2018-12-29T10:02:33.218Z,44.20
2018-12-29T10:03:33.186Z,45.90
2018-12-29T10:04:33.194Z,44.40
2018-12-29T10:05:33.209Z,49.50
2018-12-29T10:06:33.153Z,45.00
2018-12-29T10:07:33.138Z,48.00
2018-12-29T10:08:33.149Z,49.30
2018-12-29T10:09:33.116Z,45.40
2018-12-29T10:10:33.130Z,44.40
2018-12-29T10:11:33.110Z,48.90
2018-12-29T10:12:33.085Z,45.80
2018-12-29T10:13:33.074Z,45.30
2018-12-29T10:14:33.064Z,47.60
2018-12-29T10:15:33.054Z,47.50
2018-12-29T10:16:33.063Z,49.70
2018-12-29T10:17:33.059Z,48.70
2018-12-29T10:18:33.017Z,48.90
2018-12-29T10:19:33.008Z,48.20
2018-12-29T10:20:32.995Z,48.70
2018-12-29T10:21:32.989Z,48.10
2018-12-29T10:22:33.002Z,48.20
2018-12-29T10:23:33.007Z,43.40
2018-12-29T10:24:32.954Z,48.00
2018-12-29T10:25:32.946Z,48.50
2018-12-29T10:26:32.936Z,48.90
2018-12-29T10:27:32.920Z,49.40
2018-12-29T10:28:32.927Z,48.40
2018-12-29T10:29:33.006Z,47.10
2018-12-29T10:30:32.892Z,48.10
2018-12-29T10:31:32.881Z,46.90
2018-12-29T10:32:32.863Z,47.40
2018-12-29T10:33:32.855Z,45.90
2018-12-29T10:34:32.864Z,49.00
2018-12-29T10:35:32.850Z,47.70
2018-12-29T10:36:32.824Z,47.40
2018-12-29T10:37:32.809Z,46.70
2018-12-29T10:38:32.798Z,45.70
2018-12-29T10:39:32.784Z,46.40
2018-12-29T10:40:40.326Z,45.70
2018-12-29T10:41:32.777Z,47.80
2018-12-29T10:42:32.753Z,45.30
2018-12-29T10:43:32.769Z,45.30
2018-12-29T10:44:32.730Z,49.70
2018-12-29T10:45:32.727Z,46.60
2018-12-29T10:46:32.733Z,45.50
2018-12-29T10:47:34.754Z,46.20
2018-12-29T10:48:32.702Z,44.60
2018-12-29T10:49:32.695Z,44.80
2018-12-29T10:50:32.665Z,51.60
2018-12-29T10:51:32.653Z,50.90
2018-12-29T10:52:32.643Z,52.10
2018-12-29T10:53:32.648Z,49.70
2018-12-29T10:54:32.616Z,46.60
2018-12-29T10:55:32.629Z,44.90
2018-12-29T10:56:32.598Z,45.20
2018-12-29T10:57:32.584Z,47.50
2018-12-29T10:58:32.575Z,46.20
2018-12-29T10:59:32.587Z,44.60
2018-12-29T11:00:35.218Z,46.10
2018-12-29T11:01:32.554Z,41.40
2018-12-29T11:02:32.531Z,44.80
2018-12-29T11:03:32.517Z,44.30
2018-12-29T11:04:32.512Z,42.70
2018-12-29T11:05:32.511Z,43.00
2018-12-29T11:06:32.515Z,43.60
2018-12-29T11:07:32.475Z,45.00
2018-12-29T11:08:33.045Z,43.80
2018-12-29T11:09:32.453Z,40.30
2018-12-29T11:10:32.441Z,39.20
2018-12-29T11:11:32.457Z,44.10
2018-12-29T11:12:32.441Z,44.30
2018-12-29T11:13:32.409Z,43.70
2018-12-29T11:14:32.397Z,42.40
2018-12-29T11:15:32.385Z,41.80
2018-12-29T11:16:32.374Z,41.90
2018-12-29T11:17:32.387Z,43.20
2018-12-29T11:18:32.369Z,41.00
2018-12-29T11:19:32.344Z,43.70
2018-12-29T11:20:32.330Z,39.80
2018-12-29T11:21:32.332Z,42.30
2018-12-29T11:22:32.312Z,38.80
2018-12-29T11:23:32.320Z,41.70
2018-12-29T11:24:32.298Z,40.90
2018-12-29T11:25:32.334Z,38.20
2018-12-29T11:26:32.263Z,37.30
2018-12-29T11:27:32.254Z,40.60
2018-12-29T11:28:32.241Z,38.20
2018-12-29T11:29:32.266Z,39.50
2018-12-29T11:30:32.220Z,38.30
2018-12-29T11:31:32.209Z,38.20
2018-12-29T11:32:32.209Z,40.40
2018-12-29T11:33:32.189Z,36.20
2018-12-29T11:34:32.174Z,40.10
2018-12-29T11:35:32.198Z,38.00
2018-12-29T11:36:32.150Z,36.60
2018-12-29T11:37:32.142Z,33.50
2018-12-29T11:38:32.130Z,33.70
2018-12-29T11:39:32.129Z,37.20
2018-12-29T11:40:32.107Z,35.20
2018-12-29T11:41:32.134Z,37.60
2018-12-29T11:42:32.083Z,37.50
2018-12-29T11:43:32.104Z,34.10
2018-12-29T11:44:32.066Z,38.20
2018-12-29T11:45:32.052Z,36.30
2018-12-29T11:46:32.041Z,33.80
2018-12-29T11:47:32.048Z,37.00
2018-12-29T11:48:32.019Z,37.00
2018-12-29T11:49:32.026Z,33.40
2018-12-29T11:50:32.012Z,30.80
2018-12-29T11:51:31.984Z,32.10
2018-12-29T11:52:31.975Z,33.70
2018-12-29T11:53:31.961Z,31.60
2018-12-29T11:54:31.949Z,32.20
2018-12-29T11:55:31.953Z,32.90
2018-12-29T11:56:31.946Z,33.80
2018-12-29T11:57:31.916Z,29.80
2018-12-29T11:58:31.909Z,31.10
2018-12-29T11:59:31.927Z,33.90
2018-12-29T12:00:31.883Z,30.20
2018-12-29T12:01:31.889Z,28.90
2018-12-29T12:02:31.876Z,31.80
2018-12-29T12:03:31.850Z,32.20
2018-12-29T12:04:31.841Z,32.30
2018-12-29T12:05:31.827Z,33.30
2018-12-29T12:06:31.819Z,30.90
2018-12-29T12:07:31.834Z,32.50
2018-12-29T12:08:31.794Z,30.40
2018-12-29T12:09:31.787Z,28.70
2018-12-29T12:10:31.777Z,33.10
2018-12-29T12:11:31.761Z,32.00
2018-12-29T12:12:31.764Z,29.50
2018-12-29T12:13:31.779Z,30.80
2018-12-29T12:14:31.727Z,31.90
2018-12-29T12:15:31.718Z,30.30
2018-12-29T12:16:31.708Z,30.20
2018-12-29T12:17:31.697Z,31.40
2018-12-29T12:18:31.706Z,29.60
2018-12-29T12:19:31.708Z,26.50
2018-12-29T12:20:31.659Z,28.90
2018-12-29T12:21:31.658Z,28.50
2018-12-29T12:22:31.639Z,28.60
2018-12-29T12:23:31.629Z,27.60
2018-12-29T12:24:31.648Z,24.60
2018-12-29T12:25:31.606Z,26.50
2018-12-29T12:26:31.608Z,27.30
2018-12-29T12:27:31.586Z,28.60
2018-12-29T12:28:31.571Z,27.90
2018-12-29T12:29:31.561Z,26.60
2018-12-29T12:30:31.567Z,28.00
2018-12-29T12:31:31.538Z,25.00
2018-12-29T12:32:31.549Z,25.80
2018-12-29T12:33:31.516Z,25.80
2018-12-29T12:34:31.505Z,24.40
2018-12-29T12:35:31.498Z,27.00
2018-12-29T12:36:31.490Z,26.90
2018-12-29T12:37:31.470Z,27.30
2018-12-29T12:38:31.475Z,26.40
2018-12-29T12:39:31.459Z,27.30
2018-12-29T12:40:31.446Z,26.60
2018-12-29T12:41:31.427Z,26.90
2018-12-29T12:42:31.441Z,27.00
2018-12-29T12:43:31.435Z,25.70
2018-12-29T12:44:31.412Z,26.80
2018-12-29T12:45:31.382Z,27.80
2018-12-29T12:46:31.450Z,26.70
2018-12-29T12:47:31.359Z,26.10
2018-12-29T12:48:31.347Z,25.60
2018-12-29T12:49:31.351Z,25.80
2018-12-29T12:50:31.396Z,26.50
2018-12-29T12:51:31.326Z,26.50
2018-12-29T12:52:31.307Z,26.70